Time;durP1;ratioP1;P1;durP2;ratioP2;P2;SDS_P1;SDS_P2;PMS_P1;PMS_P2;Temp;Humidity;BMP_temperature;BMP_pressure;BME280_temperature;BME280_humidity;BME280_pressure;Samples;Min_cycle;Max_cycle;Signal;HPM_P1;HPM_P2
2023/12/10 00:00:09;;;;;;;22.27;20.67;;;2.90;99.90;;;;;;4865404;29;20206;-49
2023/12/10 00:02:35;;;;;;;23.10;21.40;;;2.90;99.90;;;;;;4865833;29;20186;-48
2023/12/10 00:05:01;;;;;;;21.70;20.00;;;2.90;99.90;;;;;;4866637;29;20688;-53
2023/12/10 00:07:26;;;;;;;21.80;20.20;;;2.90;99.90;;;;;;4865788;29;20427;-50
2023/12/10 00:09:52;;;;;;;22.53;20.87;;;2.90;99.90;;;;;;4866480;29;20417;-52
2023/12/10 00:12:18;;;;;;;21.30;19.77;;;2.90;99.90;;;;;;4866128;29;20191;-47
2023/12/10 00:14:45;;;;;;;22.20;20.50;;;2.90;99.90;;;;;;4864539;29;20438;-52
2023/12/10 00:17:11;;;;;;;21.35;19.85;;;3.00;99.90;;;;;;4866251;29;20197;-51
2023/12/10 00:19:36;;;;;;;21.23;19.63;;;3.00;99.90;;;;;;4865636;29;20202;-50
2023/12/10 00:22:02;;;;;;;21.93;20.33;;;2.90;99.90;;;;;;4866166;29;20217;-47
2023/12/10 00:24:28;;;;;;;21.43;19.93;;;2.90;99.90;;;;;;4866104;29;20209;-53
2023/12/10 00:26:53;;;;;;;22.57;20.87;;;2.90;99.90;;;;;;4865970;29;20245;-54
2023/12/10 00:29:19;;;;;;;21.13;19.63;;;2.90;99.90;;;;;;4866194;29;20294;-48
2023/12/10 00:31:45;;;;;;;20.30;18.80;;;2.80;99.90;;;;;;4866583;29;20544;-49
2023/12/10 00:34:11;;;;;;;20.97;19.47;;;2.80;99.90;;;;;;4863608;29;20604;-53
2023/12/10 00:36:37;;;;;;;19.10;17.80;;;2.80;99.90;;;;;;4866205;29;20205;-53
2023/12/10 00:39:06;;;;;;;19.90;18.40;;;2.80;99.90;;;;;;4865120;29;20415;-50
2023/12/10 00:41:32;;;;;;;20.02;18.52;;;2.70;99.90;;;;;;4866358;29;20778;-52
2023/12/10 00:43:58;;;;;;;20.43;18.93;;;2.70;99.90;;;;;;4865897;29;20265;-51
2023/12/10 00:46:23;;;;;;;19.37;18.00;;;2.70;99.90;;;;;;4863417;29;20283;-49
2023/12/10 00:48:49;;;;;;;19.00;17.67;;;2.70;99.90;;;;;;4865498;29;20456;-51
2023/12/10 00:51:21;;;;;;;19.90;18.43;;;2.70;99.90;;;;;;4863669;29;20194;-46
2023/12/10 00:53:48;;;;;;;18.90;17.70;;;2.60;99.90;;;;;;4866034;29;20621;-49
2023/12/10 00:56:14;;;;;;;18.58;17.27;;;2.60;99.90;;;;;;4864450;29;20804;-52
2023/12/10 00:58:40;;;;;;;18.50;17.20;;;2.60;99.90;;;;;;4868455;29;20199;-48
2023/12/10 01:01:07;;;;;;;19.20;17.75;;;2.60;99.90;;;;;;4868176;29;20206;-50
2023/12/10 01:03:33;;;;;;;19.45;17.90;;;2.60;99.90;;;;;;4869720;29;20201;-46
2023/12/10 01:05:59;;;;;;;18.63;17.33;;;2.60;99.90;;;;;;4868222;29;21150;-44
2023/12/10 01:08:25;;;;;;;18.33;17.07;;;2.60;99.90;;;;;;4869132;29;20187;-44
2023/12/10 01:10:50;;;;;;;18.27;16.87;;;2.60;99.90;;;;;;4867990;29;20275;-44
2023/12/10 01:13:16;;;;;;;19.27;17.97;;;2.70;99.90;;;;;;4870222;29;20193;-44
2023/12/10 01:15:41;;;;;;;18.87;17.47;;;2.60;99.90;;;;;;4868120;29;20199;-43
2023/12/10 01:18:07;;;;;;;17.60;16.40;;;2.60;99.90;;;;;;4869231;29;20210;-45
2023/12/10 01:20:33;;;;;;;18.30;16.90;;;2.60;99.90;;;;;;4868528;29;20187;-42
2023/12/10 01:23:07;;;;;;;18.05;16.75;;;2.50;99.90;;;;;;4868457;29;20254;-43
2023/12/10 01:25:34;;;;;;;18.10;16.90;;;2.60;99.90;;;;;;4868461;29;20230;-44
2023/12/10 01:28:00;;;;;;;17.17;16.17;;;2.50;99.90;;;;;;4869501;29;20246;-43
2023/12/10 01:30:26;;;;;;;18.60;17.33;;;2.50;99.90;;;;;;4871083;29;20541;-44
2023/12/10 01:32:57;;;;;;;17.65;16.35;;;2.60;99.90;;;;;;4864952;29;20255;-44
2023/12/10 01:35:23;;;;;;;18.40;17.20;;;2.60;99.90;;;;;;4868979;29;20185;-43
2023/12/10 01:37:49;;;;;;;17.63;16.43;;;2.60;99.90;;;;;;4869332;29;20204;-43
2023/12/10 01:40:15;;;;;;;17.30;16.20;;;2.50;99.90;;;;;;4868135;29;20501;-45
2023/12/10 01:42:41;;;;;;;17.55;16.45;;;2.50;99.90;;;;;;4868193;29;20205;-44
2023/12/10 01:45:07;;;;;;;18.00;16.73;;;2.60;99.90;;;;;;4881649;29;20273;-44
2023/12/10 01:47:35;;;;;;;16.95;15.85;;;2.60;99.90;;;;;;4869229;29;20520;-44
2023/12/10 01:50:04;;;;;;;16.05;15.15;;;2.70;99.90;;;;;;4866377;29;20595;-43
2023/12/10 01:52:30;;;;;;;16.75;15.65;;;2.60;99.90;;;;;;4867590;29;20662;-43
2023/12/10 01:54:56;;;;;;;17.17;15.90;;;2.60;99.90;;;;;;4868761;29;20288;-45
2023/12/10 01:57:22;;;;;;;15.87;14.93;;;2.70;99.90;;;;;;4868629;29;20651;-43
2023/12/10 01:59:47;;;;;;;15.90;15.00;;;2.70;99.90;;;;;;4868406;29;20586;-46
2023/12/10 02:02:13;;;;;;;16.43;15.47;;;2.70;99.90;;;;;;4867650;29;20499;-43
2023/12/10 02:04:40;;;;;;;16.55;15.65;;;2.70;99.90;;;;;;4868130;29;20210;-44
2023/12/10 02:07:06;;;;;;;16.05;15.10;;;2.70;99.90;;;;;;4867592;29;20204;-44
2023/12/10 02:09:31;;;;;;;15.53;14.63;;;2.70;99.90;;;;;;4869171;29;20198;-44
2023/12/10 02:11:57;;;;;;;16.70;15.63;;;2.70;99.90;;;;;;4868550;29;20194;-43
2023/12/10 02:14:23;;;;;;;16.60;15.60;;;2.80;99.90;;;;;;4867819;29;20226;-44
2023/12/10 02:16:48;;;;;;;15.87;14.87;;;2.80;99.90;;;;;;4867168;29;20435;-44
2023/12/10 02:19:14;;;;;;;15.57;14.67;;;2.80;99.90;;;;;;4867365;29;20201;-50
2023/12/10 02:21:44;;;;;;;15.90;15.00;;;2.80;99.90;;;;;;4875590;29;21039;-52
2023/12/10 02:24:14;;;;;;;17.45;16.35;;;2.80;99.90;;;;;;4868129;29;21216;-48
2023/12/10 02:26:40;;;;;;;16.65;15.65;;;2.80;99.90;;;;;;4878691;29;20263;-44
2023/12/10 02:29:06;;;;;;;15.80;14.90;;;2.80;99.90;;;;;;4867435;29;20190;-43
2023/12/10 02:31:31;;;;;;;17.07;16.07;;;2.80;99.90;;;;;;4867635;29;20205;-44
2023/12/10 02:33:58;;;;;;;17.13;16.13;;;2.80;99.90;;;;;;4866854;29;20447;-43
2023/12/10 02:36:24;;;;;;;17.17;16.13;;;2.80;99.90;;;;;;4868377;29;20214;-46
2023/12/10 02:38:50;;;;;;;16.67;15.77;;;2.80;99.90;;;;;;4868657;29;20234;-44
2023/12/10 02:41:16;;;;;;;16.08;15.07;;;2.80;99.90;;;;;;4865453;29;20208;-45
2023/12/10 02:43:42;;;;;;;17.27;16.20;;;2.80;99.90;;;;;;4866806;29;20237;-43
2023/12/10 02:46:07;;;;;;;16.57;15.57;;;2.70;99.90;;;;;;4867363;29;20229;-43
2023/12/10 02:48:33;;;;;;;16.20;15.30;;;2.70;99.90;;;;;;4867065;29;20248;-43
2023/12/10 02:50:59;;;;;;;16.20;15.30;;;2.70;99.90;;;;;;4867278;29;20282;-44
2023/12/10 02:53:24;;;;;;;17.00;16.00;;;2.70;99.90;;;;;;4867620;29;20438;-43
2023/12/10 02:55:51;;;;;;;17.00;16.00;;;2.80;99.90;;;;;;4865572;29;20199;-43
2023/12/10 02:58:17;;;;;;;16.48;15.57;;;2.70;99.90;;;;;;4867525;29;20192;-43
2023/12/10 03:00:43;;;;;;;16.27;15.27;;;2.70;99.90;;;;;;4866129;29;20209;-45
2023/12/10 03:03:09;;;;;;;16.52;15.43;;;2.70;99.90;;;;;;4866556;29;20559;-45
2023/12/10 03:05:35;;;;;;;14.87;14.17;;;2.70;99.90;;;;;;4867133;29;20227;-45
2023/12/10 03:08:00;;;;;;;16.70;15.70;;;2.70;99.90;;;;;;4867070;29;20233;-43
2023/12/10 03:10:26;;;;;;;15.97;15.07;;;2.70;99.90;;;;;;4867585;29;20190;-43
2023/12/10 03:12:52;;;;;;;16.30;15.40;;;2.80;99.90;;;;;;4866442;29;20206;-44
2023/12/10 03:15:39;;;;;;;15.80;14.90;;;2.80;99.90;;;;;;4867275;29;20236;-43
2023/12/10 03:18:05;;;;;;;16.33;15.32;;;2.80;99.90;;;;;;4867054;29;20280;-43
2023/12/10 03:20:31;;;;;;;15.60;14.75;;;2.80;99.90;;;;;;4866464;29;20246;-43
2023/12/10 03:22:57;;;;;;;15.23;14.33;;;2.80;99.90;;;;;;4866284;29;20200;-44
2023/12/10 03:25:22;;;;;;;14.93;14.13;;;2.80;99.90;;;;;;4876222;29;20219;-44
2023/12/10 03:27:48;;;;;;;14.80;14.00;;;2.90;99.90;;;;;;4867037;29;20202;-44
2023/12/10 03:30:14;;;;;;;14.40;13.70;;;2.90;99.90;;;;;;4864915;29;20195;-45
2023/12/10 03:32:39;;;;;;;14.90;14.20;;;3.00;99.90;;;;;;4867078;29;20206;-42
2023/12/10 03:35:05;;;;;;;15.03;14.23;;;3.00;99.90;;;;;;4867223;29;20205;-45
2023/12/10 03:37:31;;;;;;;14.48;13.75;;;3.10;99.90;;;;;;4865345;29;20202;-44
2023/12/10 03:39:57;;;;;;;14.70;14.00;;;3.10;99.90;;;;;;4867057;29;20368;-44
2023/12/10 03:42:22;;;;;;;15.00;14.20;;;3.20;99.90;;;;;;4866944;29;20228;-44
2023/12/10 03:44:48;;;;;;;15.20;14.40;;;3.20;99.90;;;;;;4866723;29;20598;-45
2023/12/10 03:47:14;;;;;;;15.10;14.30;;;3.30;99.90;;;;;;4866938;29;20234;-46
2023/12/10 03:49:39;;;;;;;14.97;14.20;;;3.30;99.90;;;;;;4865214;29;20205;-52
2023/12/10 03:52:05;;;;;;;15.07;14.17;;;3.30;99.90;;;;;;4865848;29;20234;-47
2023/12/10 03:54:31;;;;;;;14.37;13.67;;;3.30;99.90;;;;;;4866618;29;20233;-50
2023/12/10 03:56:56;;;;;;;14.93;14.20;;;3.30;99.90;;;;;;4867196;29;20441;-47
2023/12/10 03:59:22;;;;;;;14.90;14.10;;;3.30;99.90;;;;;;4865266;29;20198;-43
2023/12/10 04:01:48;;;;;;;14.97;14.27;;;3.30;99.90;;;;;;4865651;29;20281;-43
2023/12/10 04:04:13;;;;;;;15.80;15.00;;;3.30;99.90;;;;;;4866968;29;20598;-43
2023/12/10 04:06:40;;;;;;;14.70;14.00;;;3.30;99.90;;;;;;4865407;29;20187;-44
2023/12/10 04:09:08;;;;;;;15.60;14.80;;;3.40;99.90;;;;;;4866754;29;20209;-44
2023/12/10 04:11:34;;;;;;;16.20;15.40;;;3.40;99.90;;;;;;4865765;29;20198;-43
2023/12/10 04:14:00;;;;;;;15.90;15.10;;;3.50;99.90;;;;;;4865280;29;20273;-44
2023/12/10 04:16:27;;;;;;;16.27;15.37;;;3.50;99.90;;;;;;4865039;29;20206;-43
2023/12/10 04:18:53;;;;;;;16.48;15.68;;;3.50;99.90;;;;;;4866357;29;20459;-47
2023/12/10 04:21:20;;;;;;;16.40;15.50;;;3.60;99.90;;;;;;4865216;29;20594;-45
2023/12/10 04:23:45;;;;;;;16.35;15.52;;;3.60;99.90;;;;;;4865625;29;20205;-43
2023/12/10 04:26:11;;;;;;;16.33;15.47;;;3.60;99.90;;;;;;4865470;29;20956;-43
2023/12/10 04:28:38;;;;;;;16.03;15.23;;;3.70;99.90;;;;;;4866127;29;20230;-48
2023/12/10 04:31:04;;;;;;;16.83;15.93;;;3.70;99.90;;;;;;4867180;29;20286;-51
2023/12/10 04:33:30;;;;;;;15.85;15.05;;;3.80;99.90;;;;;;4869322;29;20191;-49
2023/12/10 04:35:56;;;;;;;16.50;15.60;;;3.80;99.90;;;;;;4871012;29;20202;-43
2023/12/10 04:38:21;;;;;;;16.00;15.10;;;3.80;99.90;;;;;;4869617;29;20196;-43
2023/12/10 04:40:47;;;;;;;16.27;15.37;;;3.90;99.90;;;;;;4870234;29;20891;-45
2023/12/10 04:43:13;;;;;;;16.37;15.47;;;3.90;99.90;;;;;;4863558;29;20310;-44
2023/12/10 04:45:38;;;;;;;16.13;15.13;;;3.90;99.90;;;;;;4867437;29;20215;-43
2023/12/10 04:48:05;;;;;;;15.60;14.80;;;3.90;99.90;;;;;;4870165;29;20206;-43
2023/12/10 04:50:30;;;;;;;16.08;15.18;;;3.90;99.90;;;;;;4868601;29;20187;-46
2023/12/10 04:52:56;;;;;;;15.73;14.93;;;3.90;99.90;;;;;;4870569;29;20202;-45
2023/12/10 04:55:22;;;;;;;15.53;14.73;;;4.00;99.90;;;;;;4869843;29;20191;-50
2023/12/10 04:57:48;;;;;;;16.10;15.30;;;4.00;99.90;;;;;;4868648;29;20200;-43
2023/12/10 05:00:14;;;;;;;16.42;15.50;;;4.00;99.90;;;;;;4868279;29;20650;-43
2023/12/10 05:02:40;;;;;;;16.10;15.25;;;4.10;99.90;;;;;;4884032;29;20203;-44
2023/12/10 05:05:08;;;;;;;16.40;15.50;;;4.10;99.90;;;;;;4869594;29;20318;-44
2023/12/10 05:07:34;;;;;;;15.93;15.05;;;4.10;99.90;;;;;;4870063;29;21649;-47
2023/12/10 05:10:00;;;;;;;16.15;15.25;;;4.10;99.90;;;;;;4870246;29;20201;-46
2023/12/10 05:12:26;;;;;;;16.20;15.40;;;4.10;99.90;;;;;;4869588;29;20192;-44
2023/12/10 05:14:51;;;;;;;16.53;15.63;;;4.20;99.90;;;;;;4865297;29;20494;-43
2023/12/10 05:17:17;;;;;;;16.10;15.30;;;4.10;99.90;;;;;;4869896;29;20225;-43
2023/12/10 05:19:43;;;;;;;16.30;15.40;;;4.20;99.90;;;;;;4869598;29;20199;-44
2023/12/10 05:22:08;;;;;;;15.97;15.07;;;4.20;99.90;;;;;;4869882;29;20200;-46
2023/12/10 05:24:34;;;;;;;16.00;15.10;;;4.20;99.90;;;;;;4865715;29;20216;-44
2023/12/10 05:27:00;;;;;;;16.67;15.67;;;4.20;99.90;;;;;;4868097;29;20196;-43
2023/12/10 05:29:25;;;;;;;17.30;16.30;;;4.20;99.90;;;;;;4869230;29;20883;-47
2023/12/10 05:31:51;;;;;;;16.17;15.37;;;4.30;99.90;;;;;;4868541;29;20289;-44
2023/12/10 05:34:16;;;;;;;16.37;15.47;;;4.30;99.90;;;;;;4869342;29;20187;-44
2023/12/10 05:36:42;;;;;;;16.30;15.40;;;4.30;99.90;;;;;;4866448;29;20196;-49
2023/12/10 05:39:08;;;;;;;16.33;15.40;;;4.40;99.90;;;;;;4868408;29;20247;-43
2023/12/10 05:41:34;;;;;;;16.70;15.73;;;4.40;99.90;;;;;;4868726;29;21311;-42
2023/12/10 05:44:00;;;;;;;15.70;14.80;;;4.40;99.90;;;;;;4866735;29;20231;-46
2023/12/10 05:46:25;;;;;;;16.07;15.27;;;4.40;99.90;;;;;;4866448;29;20316;-43
2023/12/10 05:48:51;;;;;;;17.27;16.27;;;4.40;99.90;;;;;;4868702;29;20195;-47
2023/12/10 05:51:17;;;;;;;16.40;15.40;;;4.50;99.90;;;;;;4869136;29;20191;-43
2023/12/10 05:53:43;;;;;;;16.63;15.70;;;4.40;99.90;;;;;;4868637;29;20195;-43
2023/12/10 05:56:09;;;;;;;15.97;15.07;;;4.40;99.90;;;;;;4865611;29;20239;-44
2023/12/10 05:58:34;;;;;;;16.10;15.27;;;4.40;99.90;;;;;;4868246;29;20228;-43
2023/12/10 06:01:00;;;;;;;15.50;14.70;;;4.40;99.90;;;;;;4866053;29;20621;-42
2023/12/10 06:03:27;;;;;;;15.90;15.00;;;4.30;99.90;;;;;;4867978;29;20203;-45
2023/12/10 06:05:52;;;;;;;16.20;15.25;;;4.30;99.90;;;;;;4868601;29;20206;-44
2023/12/10 06:08:18;;;;;;;16.83;15.60;;;4.30;99.90;;;;;;4868589;29;20603;-43
2023/12/10 06:10:44;;;;;;;16.27;14.90;;;4.20;99.90;;;;;;4868168;29;20282;-45
2023/12/10 06:13:10;;;;;;;16.63;15.73;;;4.20;99.90;;;;;;4867750;29;20191;-43
2023/12/10 06:15:36;;;;;;;16.07;15.27;;;4.20;99.90;;;;;;4862712;29;20235;-45
2023/12/10 06:18:02;;;;;;;16.65;15.55;;;4.10;99.90;;;;;;4866538;29;20223;-44
2023/12/10 06:20:28;;;;;;;16.17;15.30;;;4.10;99.90;;;;;;4868025;29;20581;-43
2023/12/10 06:22:53;;;;;;;16.33;15.37;;;4.10;99.90;;;;;;4868350;29;20199;-43
2023/12/10 06:25:20;;;;;;;16.40;15.37;;;4.00;99.90;;;;;;4868677;29;20218;-45
2023/12/10 06:27:46;;;;;;;16.10;15.15;;;4.00;99.90;;;;;;4868984;29;20194;-44
2023/12/10 06:30:11;;;;;;;16.03;15.13;;;4.00;99.90;;;;;;4867839;29;20195;-43
2023/12/10 06:32:37;;;;;;;16.13;15.23;;;3.90;99.90;;;;;;4867880;29;20275;-45
2023/12/10 06:35:03;;;;;;;15.83;15.00;;;4.00;99.90;;;;;;4868746;29;20429;-44
2023/12/10 06:37:30;;;;;;;15.88;14.77;;;3.90;99.90;;;;;;4867697;29;20202;-42
2023/12/10 06:39:56;;;;;;;16.08;15.10;;;3.90;99.90;;;;;;4874513;29;20200;-41
2023/12/10 06:42:22;;;;;;;17.13;16.10;;;3.90;99.90;;;;;;4879358;29;20192;-42
2023/12/10 06:44:47;;;;;;;16.50;15.60;;;3.90;99.90;;;;;;4866641;29;20250;-44
2023/12/10 06:47:13;;;;;;;16.57;15.10;;;3.90;99.90;;;;;;4867377;29;20880;-43
2023/12/10 06:49:39;;;;;;;16.73;15.63;;;3.90;99.90;;;;;;4865048;29;21098;-43
2023/12/10 06:52:05;;;;;;;16.40;15.30;;;3.80;99.90;;;;;;4866949;29;20191;-43
2023/12/10 06:54:31;;;;;;;17.37;16.10;;;3.80;99.90;;;;;;4863584;29;20199;-45
2023/12/10 06:56:56;;;;;;;17.63;16.55;;;3.80;99.90;;;;;;4867299;29;20511;-42
2023/12/10 06:59:22;;;;;;;17.20;16.10;;;3.80;99.90;;;;;;4866273;29;20270;-45
2023/12/10 07:01:47;;;;;;;19.00;17.50;;;3.80;99.90;;;;;;4864981;29;20198;-44
2023/12/10 07:04:13;;;;;;;17.77;16.57;;;3.80;99.90;;;;;;4866543;29;20223;-44
2023/12/10 07:06:39;;;;;;;17.03;16.03;;;3.80;99.90;;;;;;4865953;29;20222;-47
2023/12/10 07:09:06;;;;;;;16.03;15.13;;;3.90;99.90;;;;;;4882181;29;20992;-50
2023/12/10 07:11:32;;;;;;;16.00;14.80;;;3.90;99.90;;;;;;4868161;29;20176;-47
2023/12/10 07:13:58;;;;;;;15.43;14.63;;;3.90;99.90;;;;;;4866540;29;20251;-44
2023/12/10 07:16:24;;;;;;;17.13;15.67;;;4.00;99.90;;;;;;4879589;29;21122;-46
2023/12/10 07:18:49;;;;;;;16.77;15.33;;;4.00;99.90;;;;;;4865463;29;20199;-46
2023/12/10 07:21:15;;;;;;;15.80;14.77;;;4.10;99.90;;;;;;4865976;29;20195;-43
2023/12/10 07:23:41;;;;;;;16.00;14.90;;;4.10;99.90;;;;;;4865918;29;20563;-43
2023/12/10 07:26:06;;;;;;;16.00;15.00;;;4.20;99.90;;;;;;4865988;29;20284;-44
2023/12/10 07:28:32;;;;;;;15.60;14.60;;;4.40;99.90;;;;;;4867098;29;20206;-43
2023/12/10 07:30:58;;;;;;;16.60;15.13;;;4.50;99.90;;;;;;4866399;29;20187;-45
2023/12/10 07:33:23;;;;;;;16.73;15.40;;;4.60;99.90;;;;;;4865639;29;20179;-45
2023/12/10 07:35:50;;;;;;;16.60;15.20;;;4.70;99.90;;;;;;4880688;29;20199;-45
2023/12/10 07:38:16;;;;;;;16.80;15.63;;;4.80;99.90;;;;;;4865554;29;20192;-43
2023/12/10 07:40:43;;;;;;;16.77;15.57;;;4.90;99.90;;;;;;4864429;29;20564;-47
2023/12/10 07:43:09;;;;;;;18.58;17.17;;;4.90;99.90;;;;;;4866023;29;20207;-45
2023/12/10 07:45:35;;;;;;;16.23;14.87;;;5.00;99.90;;;;;;4864537;29;20693;-46
2023/12/10 07:48:00;;;;;;;16.97;15.77;;;5.20;99.90;;;;;;4865370;29;20651;-50
2023/12/10 07:50:27;;;;;;;25.20;18.27;;;5.30;99.90;;;;;;4871822;29;20244;-47
2023/12/10 07:52:53;;;;;;;18.52;16.85;;;5.30;99.90;;;;;;4879505;29;20681;-45
2023/12/10 07:55:18;;;;;;;17.57;16.27;;;5.40;99.90;;;;;;4866110;29;20193;-46
2023/12/10 07:57:44;;;;;;;22.27;20.17;;;5.50;99.90;;;;;;4867555;29;20245;-51
2023/12/10 08:00:11;;;;;;;19.67;17.70;;;5.50;99.90;;;;;;4861941;29;20196;-45
2023/12/10 08:02:36;;;;;;;19.63;17.98;;;5.50;99.90;;;;;;4866291;29;20475;-49
2023/12/10 08:05:03;;;;;;;23.63;18.80;;;5.60;99.90;;;;;;4866771;29;20302;-43
2023/12/10 08:07:29;;;;;;;21.85;20.05;;;5.60;99.90;;;;;;4866366;29;20188;-47
2023/12/10 08:09:55;;;;;;;21.40;19.60;;;5.60;99.90;;;;;;4865299;29;20220;-51
2023/12/10 08:12:21;;;;;;;19.50;17.50;;;5.70;99.90;;;;;;4866460;29;20191;-51
2023/12/10 08:14:47;;;;;;;18.40;17.03;;;5.70;99.90;;;;;;4865848;29;20206;-43
2023/12/10 08:17:12;;;;;;;20.13;18.53;;;5.80;99.90;;;;;;4866874;29;20445;-52
2023/12/10 08:19:38;;;;;;;17.60;16.30;;;5.80;99.90;;;;;;4865902;29;20187;-46
2023/12/10 08:22:04;;;;;;;18.17;16.67;;;5.90;99.90;;;;;;4866043;29;20220;-49
2023/12/10 08:24:30;;;;;;;17.10;15.90;;;5.90;99.90;;;;;;4866741;29;20252;-49
2023/12/10 08:26:56;;;;;;;18.65;16.80;;;6.00;99.90;;;;;;4867062;29;20183;-47
2023/12/10 08:29:21;;;;;;;19.07;17.33;;;5.90;99.90;;;;;;4865428;29;21457;-47
2023/12/10 08:31:48;;;;;;;19.97;18.33;;;6.00;99.90;;;;;;4866218;29;20192;-48
2023/12/10 08:34:14;;;;;;;23.80;18.23;;;6.10;99.90;;;;;;4871118;29;20196;-48
2023/12/10 08:36:40;;;;;;;20.47;18.50;;;6.20;99.90;;;;;;4866801;29;20503;-46
2023/12/10 08:39:06;;;;;;;17.67;16.20;;;6.20;99.90;;;;;;4862673;29;20523;-46
2023/12/10 08:41:32;;;;;;;16.90;15.63;;;6.30;99.90;;;;;;4861578;29;20290;-49
2023/12/10 08:43:58;;;;;;;18.30;14.93;;;6.50;99.90;;;;;;4863289;29;20227;-50
2023/12/10 08:46:24;;;;;;;23.33;15.80;;;6.70;99.90;;;;;;4862922;29;20526;-49
2023/12/10 08:48:50;;;;;;;17.87;16.13;;;6.90;99.90;;;;;;4864673;29;20205;-49
2023/12/10 08:51:15;;;;;;;17.95;15.98;;;7.00;99.90;;;;;;4879209;29;20216;-47
2023/12/10 08:53:41;;;;;;;21.10;15.30;;;7.20;77.50;;;;;;4864634;29;20373;-47
2023/12/10 08:56:07;;;;;;;16.63;15.27;;;7.40;67.60;;;;;;4865197;29;20207;-49
2023/12/10 08:58:33;;;;;;;17.40;14.57;;;7.60;35.80;;;;;;4864873;29;20200;-51
2023/12/10 09:01:02;;;;;;;14.77;13.60;;;7.70;25.30;;;;;;4862879;29;20431;-49
2023/12/10 09:03:28;;;;;;;14.53;13.23;;;7.90;9.60;;;;;;4863734;29;20463;-46
2023/12/10 09:05:54;;;;;;;13.73;12.70;;;8.00;12.80;;;;;;4862083;29;20480;-46
2023/12/10 09:08:19;;;;;;;13.13;12.13;;;8.10;15.00;;;;;;4863230;29;20279;-48
2023/12/10 09:10:45;;;;;;;13.47;12.10;;;8.20;1.00;;;;;;4860997;29;20251;-46
2023/12/10 09:13:11;;;;;;;12.67;11.87;;;8.30;1.00;;;;;;4864251;29;20671;-47
2023/12/10 09:15:36;;;;;;;12.97;11.83;;;8.30;1.00;;;;;;4863962;29;20195;-51
2023/12/10 09:18:02;;;;;;;15.07;11.83;;;8.50;1.00;;;;;;4865064;29;20232;-46
2023/12/10 09:20:28;;;;;;;12.40;11.50;;;8.50;1.00;;;;;;4869250;29;20210;-48
2023/12/10 09:22:53;;;;;;;13.43;12.13;;;8.60;1.00;;;;;;4866572;29;20261;-47
2023/12/10 09:25:19;;;;;;;13.40;12.30;;;8.60;1.00;;;;;;4868756;29;20223;-44
2023/12/10 09:27:44;;;;;;;12.50;11.63;;;8.70;1.00;;;;;;4860456;29;20274;-42
2023/12/10 09:30:10;;;;;;;12.10;11.10;;;8.70;1.00;;;;;;4875374;29;20219;-44
2023/12/10 09:32:39;;;;;;;13.40;12.13;;;8.70;1.00;;;;;;4869012;29;20196;-42
2023/12/10 09:35:05;;;;;;;12.87;11.80;;;8.70;1.00;;;;;;4868271;29;20451;-42
2023/12/10 09:37:31;;;;;;;12.70;11.90;;;8.70;1.00;;;;;;4868468;29;20440;-43
2023/12/10 09:39:56;;;;;;;12.70;11.70;;;8.70;1.00;;;;;;4883320;29;21393;-42
2023/12/10 09:42:22;;;;;;;14.03;12.73;;;8.70;1.00;;;;;;4868865;29;20499;-47
2023/12/10 09:44:48;;;;;;;12.87;11.77;;;8.90;1.00;;;;;;4867454;29;20571;-49
2023/12/10 09:47:14;;;;;;;13.30;12.20;;;8.90;1.00;;;;;;4868423;29;20247;-46
2023/12/10 09:49:41;;;;;;;12.87;11.87;;;9.00;1.00;;;;;;4867957;29;20203;-51
2023/12/10 09:52:09;;;;;;;12.90;11.87;;;9.10;1.00;;;;;;4867539;29;20520;-52
2023/12/10 09:54:40;;;;;;;13.43;12.33;;;9.20;1.00;;;;;;4862809;29;20428;-50
2023/12/10 09:57:06;;;;;;;15.30;11.57;;;9.30;1.00;;;;;;4868494;29;20424;-49
2023/12/10 09:59:32;;;;;;;12.37;11.60;;;9.30;1.00;;;;;;4867722;29;20461;-49
2023/12/10 10:01:58;;;;;;;12.10;11.17;;;9.30;1.00;;;;;;4867769;29;20480;-47
2023/12/10 10:04:23;;;;;;;13.03;12.07;;;9.40;1.00;;;;;;4868274;29;20195;-51
2023/12/10 10:06:49;;;;;;;12.43;11.40;;;9.40;1.00;;;;;;4867888;29;20563;-48
2023/12/10 10:09:15;;;;;;;12.20;11.23;;;9.40;1.00;;;;;;4866940;29;20196;-50
2023/12/10 10:11:41;;;;;;;12.80;11.90;;;9.40;1.00;;;;;;4882054;29;20200;-48
2023/12/10 10:14:07;;;;;;;12.50;11.60;;;9.40;1.00;;;;;;4865430;29;20185;-48
2023/12/10 10:16:33;;;;;;;11.70;10.73;;;9.30;1.00;;;;;;4866505;29;20886;-50
2023/12/10 10:18:59;;;;;;;12.10;11.30;;;9.20;1.00;;;;;;4853582;29;20449;-50
2023/12/10 10:21:25;;;;;;;11.70;10.70;;;9.20;1.00;;;;;;4880370;29;20997;-49
2023/12/10 10:23:51;;;;;;;12.80;11.60;;;9.30;1.00;;;;;;4865349;29;20436;-48
2023/12/10 10:26:20;;;;;;;11.27;10.23;;;9.20;1.00;;;;;;4867024;29;20486;-47
2023/12/10 10:28:45;;;;;;;12.47;11.50;;;9.10;1.00;;;;;;4867458;29;20237;-46
2023/12/10 10:31:11;;;;;;;12.30;11.60;;;9.10;1.00;;;;;;4867076;29;20508;-49
2023/12/10 10:33:37;;;;;;;13.33;12.20;;;9.00;1.00;;;;;;4865350;29;20432;-47
2023/12/10 10:36:04;;;;;;;12.97;12.07;;;9.00;1.00;;;;;;4866535;29;20193;-45
2023/12/10 10:38:31;;;;;;;12.20;11.53;;;8.90;1.00;;;;;;4866241;29;20954;-47
2023/12/10 10:41:01;;;;;;;12.40;11.63;;;8.90;1.00;;;;;;4879845;29;20445;-46
2023/12/10 10:43:27;;;;;;;13.27;12.20;;;8.80;1.00;;;;;;4867005;29;20963;-51
2023/12/10 10:45:53;;;;;;;12.57;11.87;;;8.70;7.80;;;;;;4863688;29;20491;-51
2023/12/10 10:48:22;;;;;;;12.70;12.00;;;8.70;14.80;;;;;;4866397;29;20538;-49
2023/12/10 10:50:49;;;;;;;13.57;12.67;;;8.60;29.20;;;;;;4866004;29;20452;-46
2023/12/10 10:53:16;;;;;;;14.20;13.20;;;8.60;30.60;;;;;;4865450;29;20444;-48
2023/12/10 10:55:46;;;;;;;15.77;14.47;;;8.50;52.40;;;;;;4866084;29;20939;-51
2023/12/10 10:58:29;;;;;;;14.67;13.63;;;8.50;55.70;;;;;;4862841;29;21328;-50
2023/12/10 11:00:58;;;;;;;14.13;13.43;;;8.30;49.50;;;;;;4866248;29;20440;-49
2023/12/10 11:03:27;;;;;;;13.93;12.90;;;8.30;73.70;;;;;;4866786;29;20433;-48
2023/12/10 11:06:07;;;;;;;13.90;13.00;;;8.30;75.80;;;;;;4863003;29;20575;-48
2023/12/10 11:08:33;;;;;;;13.30;12.60;;;8.20;82.80;;;;;;4864310;29;20448;-46
2023/12/10 11:11:00;;;;;;;14.67;13.60;;;8.20;90.80;;;;;;4865906;29;20432;-47
2023/12/10 11:13:46;;;;;;;14.47;13.57;;;8.10;93.00;;;;;;4867234;29;20180;-49
2023/12/10 11:16:12;;;;;;;14.20;13.30;;;8.10;81.20;;;;;;4866209;29;20448;-46
2023/12/10 11:18:51;;;;;;;14.67;13.70;;;8.20;90.60;;;;;;4866771;29;20459;-49
2023/12/10 11:21:17;;;;;;;15.00;13.87;;;8.10;91.40;;;;;;4866148;29;20935;-51
2023/12/10 11:23:42;;;;;;;15.47;14.43;;;8.10;77.40;;;;;;4867292;29;20477;-47
2023/12/10 11:26:08;;;;;;;14.37;13.53;;;8.00;92.70;;;;;;4866191;29;20483;-50
2023/12/10 11:28:35;;;;;;;14.07;13.27;;;8.10;91.30;;;;;;4864955;29;20215;-46
2023/12/10 11:31:00;;;;;;;12.90;12.20;;;8.10;95.30;;;;;;4863643;29;20442;-48
2023/12/10 11:33:27;;;;;;;14.90;13.90;;;8.00;99.90;;;;;;4864403;29;20191;-50
2023/12/10 11:35:56;;;;;;;13.63;12.90;;;8.00;94.50;;;;;;4864932;29;20695;-49
2023/12/10 11:38:22;;;;;;;13.70;12.90;;;8.00;90.60;;;;;;4866234;29;20447;-47
2023/12/10 11:40:48;;;;;;;14.83;13.47;;;8.00;93.00;;;;;;4864047;29;20440;-51
2023/12/10 11:43:14;;;;;;;13.90;12.80;;;8.00;75.30;;;;;;4876547;29;20231;-50
2023/12/10 11:45:39;;;;;;;14.60;13.60;;;8.10;59.40;;;;;;4861745;29;20803;-47
2023/12/10 11:48:05;;;;;;;14.77;13.67;;;8.10;64.80;;;;;;4864501;29;20592;-48
2023/12/10 11:50:32;;;;;;;13.97;13.20;;;8.10;63.50;;;;;;4865221;29;20199;-47
2023/12/10 11:52:58;;;;;;;14.07;13.37;;;8.20;40.10;;;;;;4866162;29;20767;-48
2023/12/10 11:55:24;;;;;;;14.00;13.10;;;8.20;40.00;;;;;;4860721;29;20432;-51
2023/12/10 11:57:50;;;;;;;15.07;14.17;;;8.20;41.00;;;;;;4866204;29;20432;-48
2023/12/10 12:00:17;;;;;;;14.80;13.90;;;8.30;48.10;;;;;;4863448;29;20220;-45
2023/12/10 12:02:46;;;;;;;14.60;13.80;;;8.30;40.00;;;;;;4865728;29;20223;-43
2023/12/10 12:05:13;;;;;;;15.20;14.20;;;8.40;45.50;;;;;;4863557;29;21295;-45
2023/12/10 12:07:40;;;;;;;14.30;13.30;;;8.40;41.50;;;;;;4865400;29;20449;-50
2023/12/10 12:10:07;;;;;;;14.73;13.83;;;8.40;29.50;;;;;;4863083;29;20459;-48
2023/12/10 12:12:44;;;;;;;13.30;12.70;;;8.40;21.40;;;;;;4864856;29;20432;-48
2023/12/10 12:15:10;;;;;;;14.80;13.83;;;8.40;25.40;;;;;;4864469;29;20535;-49
2023/12/10 12:17:37;;;;;;;14.50;13.67;;;8.50;40.40;;;;;;4863308;29;20448;-47
2023/12/10 12:20:12;;;;;;;13.90;12.60;;;8.50;21.10;;;;;;4862488;29;20428;-50
2023/12/10 12:22:37;;;;;;;13.20;12.60;;;8.50;10.00;;;;;;4864137;29;20495;-46
2023/12/10 12:25:03;;;;;;;13.00;12.30;;;8.60;11.10;;;;;;4861829;29;21193;-49
2023/12/10 12:27:29;;;;;;;11.97;11.13;;;8.60;1.00;;;;;;4863430;29;20187;-46
2023/12/10 12:29:55;;;;;;;12.33;11.53;;;8.70;1.00;;;;;;4862744;29;20479;-48
2023/12/10 12:32:20;;;;;;;13.83;11.77;;;8.80;1.00;;;;;;4862461;29;20200;-46